sensor_id;sensor_type;location;lat;lon;timestamp;pressure;altitude;pressure_sealevel;temperature;humidity
39773;BME280;25451;51.960;6.250;2023-07-08T00:00:27;101649.00;;;22.03;46.80
39773;BME280;25451;51.960;6.250;2023-07-08T00:02:52;101644.56;;;21.97;46.65
39773;BME280;25451;51.960;6.250;2023-07-08T00:05:20;101648.50;;;21.96;46.84
39773;BME280;25451;51.960;6.250;2023-07-08T00:07:46;101638.47;;;21.90;47.19
39773;BME280;25451;51.960;6.250;2023-07-08T00:10:21;101645.28;;;21.84;46.98
39773;BME280;25451;51.960;6.250;2023-07-08T00:12:51;101636.59;;;21.80;47.17
39773;BME280;25451;51.960;6.250;2023-07-08T00:15:17;101639.75;;;21.74;47.29
39773;BME280;25451;51.960;6.250;2023-07-08T00:17:43;101641.81;;;21.68;47.46
39773;BME280;25451;51.960;6.250;2023-07-08T00:22:47;101635.38;;;21.63;47.47
39773;BME280;25451;51.960;6.250;2023-07-08T00:25:18;101628.75;;;21.54;47.50
39773;BME280;25451;51.960;6.250;2023-07-08T00:27:47;101622.31;;;21.53;47.61
39773;BME280;25451;51.960;6.250;2023-07-08T00:30:31;101630.41;;;21.55;47.76
39773;BME280;25451;51.960;6.250;2023-07-08T00:32:58;101628.22;;;21.52;47.80
39773;BME280;25451;51.960;6.250;2023-07-08T00:35:50;101627.69;;;21.50;47.75
39773;BME280;25451;51.960;6.250;2023-07-08T00:38:24;101624.38;;;21.42;47.87
39773;BME280;25451;51.960;6.250;2023-07-08T00:40:59;101627.50;;;21.41;48.42
39773;BME280;25451;51.960;6.250;2023-07-08T00:43:39;101623.59;;;21.37;48.17
39773;BME280;25451;51.960;6.250;2023-07-08T00:48:38;101598.75;;;21.25;48.13
39773;BME280;25451;51.960;6.250;2023-07-08T00:51:10;101602.75;;;21.19;48.22
39773;BME280;25451;51.960;6.250;2023-07-08T00:53:38;101613.91;;;21.24;48.28
39773;BME280;25451;51.960;6.250;2023-07-08T00:56:16;101611.72;;;21.21;48.47
39773;BME280;25451;51.960;6.250;2023-07-08T00:59:12;101607.28;;;21.15;48.56
39773;BME280;25451;51.960;6.250;2023-07-08T01:01:43;101612.34;;;21.13;48.64
39773;BME280;25451;51.960;6.250;2023-07-08T01:04:11;101611.19;;;21.14;48.59
39773;BME280;25451;51.960;6.250;2023-07-08T01:06:41;101589.38;;;21.06;48.53
39773;BME280;25451;51.960;6.250;2023-07-08T01:09:11;101592.50;;;21.05;48.70
39773;BME280;25451;51.960;6.250;2023-07-08T01:11:39;101590.53;;;21.05;48.85
39773;BME280;25451;51.960;6.250;2023-07-08T01:14:07;101593.06;;;21.02;49.01
39773;BME280;25451;51.960;6.250;2023-07-08T01:16:35;101583.34;;;20.89;49.16
39773;BME280;25451;51.960;6.250;2023-07-08T01:19:01;101594.84;;;20.93;49.04
39773;BME280;25451;51.960;6.250;2023-07-08T01:21:34;101606.88;;;20.93;49.13
39773;BME280;25451;51.960;6.250;2023-07-08T01:24:02;101595.72;;;20.88;49.26
39773;BME280;25451;51.960;6.250;2023-07-08T01:26:29;101610.28;;;20.90;49.49
39773;BME280;25451;51.960;6.250;2023-07-08T01:28:56;101586.28;;;20.74;49.48
39773;BME280;25451;51.960;6.250;2023-07-08T01:31:22;101610.84;;;20.87;49.38
39773;BME280;25451;51.960;6.250;2023-07-08T01:33:48;101577.91;;;20.69;49.56
39773;BME280;25451;51.960;6.250;2023-07-08T01:36:16;101581.88;;;20.68;49.64
39773;BME280;25451;51.960;6.250;2023-07-08T01:38:43;101582.94;;;20.72;49.61
39773;BME280;25451;51.960;6.250;2023-07-08T01:41:15;101583.53;;;20.69;49.86
39773;BME280;25451;51.960;6.250;2023-07-08T01:43:40;101577.66;;;20.65;49.89
39773;BME280;25451;51.960;6.250;2023-07-08T01:46:13;101569.88;;;20.57;50.05
39773;BME280;25451;51.960;6.250;2023-07-08T01:48:40;101577.44;;;20.57;50.07
39773;BME280;25451;51.960;6.250;2023-07-08T01:51:08;101582.53;;;20.55;50.15
39773;BME280;25451;51.960;6.250;2023-07-08T01:53:39;101581.69;;;20.54;50.27
39773;BME280;25451;51.960;6.250;2023-07-08T01:56:05;101571.94;;;20.47;50.32
39773;BME280;25451;51.960;6.250;2023-07-08T01:58:31;101576.41;;;20.48;50.30
39773;BME280;25451;51.960;6.250;2023-07-08T02:00:56;101566.38;;;20.42;50.45
39773;BME280;25451;51.960;6.250;2023-07-08T02:03:22;101569.72;;;20.44;50.53
39773;BME280;25451;51.960;6.250;2023-07-08T02:05:48;101559.69;;;20.38;50.77
39773;BME280;25451;51.960;6.250;2023-07-08T02:08:13;101557.97;;;20.37;50.66
39773;BME280;25451;51.960;6.250;2023-07-08T02:10:41;101553.78;;;20.34;50.79
39773;BME280;25451;51.960;6.250;2023-07-08T02:13:06;101541.78;;;20.29;50.95
39773;BME280;25451;51.960;6.250;2023-07-08T02:15:32;101562.19;;;20.34;50.85
39773;BME280;25451;51.960;6.250;2023-07-08T02:17:58;101546.53;;;20.28;50.93
39773;BME280;25451;51.960;6.250;2023-07-08T02:20:23;101549.63;;;20.32;50.99
39773;BME280;25451;51.960;6.250;2023-07-08T02:22:49;101536.22;;;20.24;50.94
39773;BME280;25451;51.960;6.250;2023-07-08T02:25:14;101539.31;;;20.22;51.10
39773;BME280;25451;51.960;6.250;2023-07-08T02:27:41;101550.78;;;20.26;51.17
39773;BME280;25451;51.960;6.250;2023-07-08T02:30:06;101539.03;;;20.19;51.34
39773;BME280;25451;51.960;6.250;2023-07-08T02:32:32;101538.25;;;20.08;51.42
39773;BME280;25451;51.960;6.250;2023-07-08T02:35:03;101536.84;;;20.06;51.49
39773;BME280;25451;51.960;6.250;2023-07-08T02:37:29;101532.16;;;20.01;51.71
39773;BME280;25451;51.960;6.250;2023-07-08T02:39:55;101533.84;;;19.97;51.53
39773;BME280;25451;51.960;6.250;2023-07-08T02:42:20;101531.06;;;19.97;51.88
39773;BME280;25451;51.960;6.250;2023-07-08T02:44:46;101525.75;;;19.91;51.98
39773;BME280;25451;51.960;6.250;2023-07-08T02:47:11;101531.38;;;19.91;52.03
39773;BME280;25451;51.960;6.250;2023-07-08T02:49:36;101526.94;;;19.84;52.02
39773;BME280;25451;51.960;6.250;2023-07-08T02:52:02;101538.38;;;19.93;52.20
39773;BME280;25451;51.960;6.250;2023-07-08T02:54:28;101538.63;;;19.92;52.22
39773;BME280;25451;51.960;6.250;2023-07-08T02:56:53;101533.91;;;19.87;52.37
39773;BME280;25451;51.960;6.250;2023-07-08T02:59:18;101533.38;;;19.85;52.27
39773;BME280;25451;51.960;6.250;2023-07-08T03:01:44;101536.44;;;19.89;52.28
39773;BME280;25451;51.960;6.250;2023-07-08T03:04:12;101522.97;;;19.85;52.45
39773;BME280;25451;51.960;6.250;2023-07-08T03:06:49;101507.91;;;19.76;52.67
39773;BME280;25451;51.960;6.250;2023-07-08T03:09:15;101520.78;;;19.77;52.56
39773;BME280;25451;51.960;6.250;2023-07-08T03:11:41;101523.31;;;19.79;52.73
39773;BME280;25451;51.960;6.250;2023-07-08T03:14:07;101520.78;;;19.77;52.76
39773;BME280;25451;51.960;6.250;2023-07-08T03:16:32;101519.44;;;19.75;52.89
39773;BME280;25451;51.960;6.250;2023-07-08T03:18:58;101508.53;;;19.63;53.02
39773;BME280;25451;51.960;6.250;2023-07-08T03:21:24;101519.69;;;19.73;52.97
39773;BME280;25451;51.960;6.250;2023-07-08T03:23:50;101498.50;;;19.57;52.97
39773;BME280;25451;51.960;6.250;2023-07-08T03:26:19;101504.09;;;19.57;53.13
39773;BME280;25451;51.960;6.250;2023-07-08T03:28:45;101530.09;;;19.68;53.14
39773;BME280;25451;51.960;6.250;2023-07-08T03:31:11;101527.03;;;19.64;53.35
39773;BME280;25451;51.960;6.250;2023-07-08T03:33:36;101527.03;;;19.64;53.01
39773;BME280;25451;51.960;6.250;2023-07-08T03:36:04;101526.19;;;19.64;53.29
39773;BME280;25451;51.960;6.250;2023-07-08T03:38:29;101524.25;;;19.64;53.21
39773;BME280;25451;51.960;6.250;2023-07-08T03:40:55;101524.25;;;19.59;53.15
39773;BME280;25451;51.960;6.250;2023-07-08T03:43:20;101530.41;;;19.61;53.13
39773;BME280;25451;51.960;6.250;2023-07-08T03:45:46;101527.06;;;19.59;53.19
39773;BME280;25451;51.960;6.250;2023-07-08T03:48:12;101544.66;;;19.65;53.13
39773;BME280;25451;51.960;6.250;2023-07-08T03:50:38;101545.50;;;19.65;53.32
39773;BME280;25451;51.960;6.250;2023-07-08T03:53:03;101531.00;;;19.53;53.35
39773;BME280;25451;51.960;6.250;2023-07-08T03:55:29;101543.00;;;19.59;53.21
39773;BME280;25451;51.960;6.250;2023-07-08T03:57:54;101529.34;;;19.52;53.28
39773;BME280;25451;51.960;6.250;2023-07-08T04:00:20;101543.56;;;19.61;53.42
39773;BME280;25451;51.960;6.250;2023-07-08T04:02:46;101542.75;;;19.60;53.54
39773;BME280;25451;51.960;6.250;2023-07-08T04:05:15;101541.09;;;19.54;53.57
39773;BME280;25451;51.960;6.250;2023-07-08T04:07:40;101548.91;;;19.57;53.60
39773;BME280;25451;51.960;6.250;2023-07-08T04:10:07;101537.19;;;19.45;53.76
39773;BME280;25451;51.960;6.250;2023-07-08T04:12:33;101538.59;;;19.43;53.81
39773;BME280;25451;51.960;6.250;2023-07-08T04:14:58;101526.03;;;19.40;53.75
39773;BME280;25451;51.960;6.250;2023-07-08T04:17:23;101529.69;;;19.36;53.88
39773;BME280;25451;51.960;6.250;2023-07-08T04:19:50;101536.41;;;19.40;53.87
39773;BME280;25451;51.960;6.250;2023-07-08T04:22:15;101541.69;;;19.41;53.96
39773;BME280;25451;51.960;6.250;2023-07-08T04:24:40;101541.16;;;19.39;54.17
39773;BME280;25451;51.960;6.250;2023-07-08T04:27:11;101556.50;;;19.47;54.07
39773;BME280;25451;51.960;6.250;2023-07-08T04:29:38;101532.78;;;19.34;54.12
39773;BME280;25451;51.960;6.250;2023-07-08T04:32:03;101528.56;;;19.32;54.23
39773;BME280;25451;51.960;6.250;2023-07-08T04:34:29;101563.50;;;19.49;53.98
39773;BME280;25451;51.960;6.250;2023-07-08T04:36:54;101570.75;;;19.55;54.12
39773;BME280;25451;51.960;6.250;2023-07-08T04:39:19;101544.19;;;19.48;54.05
39773;BME280;25451;51.960;6.250;2023-07-08T04:41:45;101547.81;;;19.53;54.14
39773;BME280;25451;51.960;6.250;2023-07-08T04:44:10;101553.41;;;19.58;54.07
39773;BME280;25451;51.960;6.250;2023-07-08T04:46:56;101545.00;;;19.58;54.18
39773;BME280;25451;51.960;6.250;2023-07-08T04:49:23;101550.59;;;19.58;54.29
39773;BME280;25451;51.960;6.250;2023-07-08T04:51:49;101544.41;;;19.61;54.40
39773;BME280;25451;51.960;6.250;2023-07-08T04:54:15;101541.34;;;19.58;54.37
39773;BME280;25451;51.960;6.250;2023-07-08T04:56:42;101548.91;;;19.62;54.35
39773;BME280;25451;51.960;6.250;2023-07-08T04:59:10;101552.81;;;19.66;54.45
39773;BME280;25451;51.960;6.250;2023-07-08T05:01:35;101541.31;;;19.63;54.25
39773;BME280;25451;51.960;6.250;2023-07-08T05:04:02;101561.69;;;19.78;54.27
39773;BME280;25451;51.960;6.250;2023-07-08T05:06:27;101548.81;;;19.77;54.07
39773;BME280;25451;51.960;6.250;2023-07-08T05:08:53;101553.53;;;19.87;54.10
39773;BME280;25451;51.960;6.250;2023-07-08T05:11:18;101563.22;;;20.05;54.07
39773;BME280;25451;51.960;6.250;2023-07-08T05:13:44;101539.16;;;19.99;53.93
39773;BME280;25451;51.960;6.250;2023-07-08T05:16:09;101563.72;;;20.17;53.94
39773;BME280;25451;51.960;6.250;2023-07-08T05:18:34;101529.91;;;20.03;53.89
39773;BME280;25451;51.960;6.250;2023-07-08T05:21:00;101538.75;;;20.20;53.87
39773;BME280;25451;51.960;6.250;2023-07-08T05:23:26;101548.19;;;20.34;53.84
39773;BME280;25451;51.960;6.250;2023-07-08T05:25:51;101541.94;;;20.42;53.74
39773;BME280;25451;51.960;6.250;2023-07-08T05:28:17;101519.56;;;20.37;53.53
39773;BME280;25451;51.960;6.250;2023-07-08T05:30:42;101542.69;;;20.58;53.54
39773;BME280;25451;51.960;6.250;2023-07-08T05:33:08;101545.88;;;20.75;53.31
39773;BME280;25451;51.960;6.250;2023-07-08T05:35:34;101535.38;;;20.86;53.19
39773;BME280;25451;51.960;6.250;2023-07-08T05:37:59;101524.94;;;20.91;52.95
39773;BME280;25451;51.960;6.250;2023-07-08T05:40:25;101540.47;;;21.12;52.79
39773;BME280;25451;51.960;6.250;2023-07-08T05:42:50;101523.84;;;21.16;52.64
39773;BME280;25451;51.960;6.250;2023-07-08T05:45:15;101532.13;;;21.31;52.51
39773;BME280;25451;51.960;6.250;2023-07-08T05:47:41;101535.91;;;21.40;52.44
39773;BME280;25451;51.960;6.250;2023-07-08T05:50:07;101546.75;;;21.52;52.30
39773;BME280;25451;51.960;6.250;2023-07-08T05:52:32;101532.63;;;21.57;52.20
39773;BME280;25451;51.960;6.250;2023-07-08T05:54:57;101537.97;;;21.77;52.05
39773;BME280;25451;51.960;6.250;2023-07-08T05:57:23;101523.28;;;21.85;52.02
39773;BME280;25451;51.960;6.250;2023-07-08T05:59:48;101549.66;;;22.07;51.67
39773;BME280;25451;51.960;6.250;2023-07-08T06:02:16;101541.38;;;22.16;51.47
39773;BME280;25451;51.960;6.250;2023-07-08T06:04:41;101553.22;;;22.32;51.58
39773;BME280;25451;51.960;6.250;2023-07-08T06:07:07;101537.28;;;22.27;51.40
39773;BME280;25451;51.960;6.250;2023-07-08T06:09:32;101539.06;;;22.37;51.21
39773;BME280;25451;51.960;6.250;2023-07-08T06:11:58;101549.84;;;22.48;51.24
39773;BME280;25451;51.960;6.250;2023-07-08T06:14:23;101524.69;;;22.38;51.36
39773;BME280;25451;51.960;6.250;2023-07-08T06:16:48;101551.75;;;22.53;51.46
39773;BME280;25451;51.960;6.250;2023-07-08T06:19:14;101553.38;;;22.59;51.27
39773;BME280;25451;51.960;6.250;2023-07-08T06:21:42;101538.44;;;22.58;50.98
39773;BME280;25451;51.960;6.250;2023-07-08T06:24:08;101554.25;;;22.73;51.14
39773;BME280;25451;51.960;6.250;2023-07-08T06:26:34;101559.47;;;22.79;50.92
39773;BME280;25451;51.960;6.250;2023-07-08T06:28:59;101547.69;;;22.77;50.93
39773;BME280;25451;51.960;6.250;2023-07-08T06:31:24;101541.75;;;22.79;50.96
39773;BME280;25451;51.960;6.250;2023-07-08T06:33:50;101540.00;;;22.83;50.86
39773;BME280;25451;51.960;6.250;2023-07-08T06:36:16;101561.41;;;22.97;50.80
39773;BME280;25451;51.960;6.250;2023-07-08T06:38:41;101554.75;;;23.07;50.79
39773;BME280;25451;51.960;6.250;2023-07-08T06:41:06;101558.19;;;23.18;50.67
39773;BME280;25451;51.960;6.250;2023-07-08T06:43:32;101550.78;;;23.22;50.58
39773;BME280;25451;51.960;6.250;2023-07-08T06:45:57;101551.75;;;23.31;50.46
39773;BME280;25451;51.960;6.250;2023-07-08T06:48:23;101558.25;;;23.45;50.17
39773;BME280;25451;51.960;6.250;2023-07-08T06:50:49;101561.06;;;23.58;50.14
39773;BME280;25451;51.960;6.250;2023-07-08T06:53:15;101551.06;;;23.66;49.92
39773;BME280;25451;51.960;6.250;2023-07-08T06:55:40;101536.75;;;23.62;49.82
39773;BME280;25451;51.960;6.250;2023-07-08T06:58:06;101549.06;;;23.80;50.01
39773;BME280;25451;51.960;6.250;2023-07-08T07:00:31;101537.25;;;23.78;49.93
39773;BME280;25451;51.960;6.250;2023-07-08T07:02:56;101547.03;;;23.94;49.61
39773;BME280;25451;51.960;6.250;2023-07-08T07:05:22;101545.25;;;23.98;49.57
39773;BME280;25451;51.960;6.250;2023-07-08T07:07:47;101559.53;;;24.15;49.81
39773;BME280;25451;51.960;6.250;2023-07-08T07:10:13;101544.31;;;24.16;49.51
39773;BME280;25451;51.960;6.250;2023-07-08T07:12:38;101556.06;;;24.32;49.38
39773;BME280;25451;51.960;6.250;2023-07-08T07:15:04;101545.97;;;24.39;49.23
39773;BME280;25451;51.960;6.250;2023-07-08T07:17:30;101547.09;;;24.52;49.13
39773;BME280;25451;51.960;6.250;2023-07-08T07:19:55;101542.00;;;24.62;49.24
39773;BME280;25451;51.960;6.250;2023-07-08T07:22:21;101545.44;;;24.73;48.88
39773;BME280;25451;51.960;6.250;2023-07-08T07:24:47;101526.28;;;24.70;48.74
39773;BME280;25451;51.960;6.250;2023-07-08T07:27:12;101534.72;;;24.84;48.80
39773;BME280;25451;51.960;6.250;2023-07-08T07:29:44;101548.47;;;25.07;48.77
39773;BME280;25451;51.960;6.250;2023-07-08T07:32:10;101541.06;;;25.20;48.40
39773;BME280;25451;51.960;6.250;2023-07-08T07:34:36;101530.47;;;25.34;48.55
39773;BME280;25451;51.960;6.250;2023-07-08T07:37:02;101542.25;;;25.58;48.09
39773;BME280;25451;51.960;6.250;2023-07-08T07:39:27;101531.28;;;25.74;47.87
39773;BME280;25451;51.960;6.250;2023-07-08T07:41:54;101545.34;;;25.96;47.38
39773;BME280;25451;51.960;6.250;2023-07-08T07:44:19;101540.16;;;26.06;47.02
39773;BME280;25451;51.960;6.250;2023-07-08T07:46:45;101543.38;;;26.13;47.01
39773;BME280;25451;51.960;6.250;2023-07-08T07:49:11;101547.72;;;26.28;46.72
39773;BME280;25451;51.960;6.250;2023-07-08T07:51:37;101540.25;;;26.41;46.69
39773;BME280;25451;51.960;6.250;2023-07-08T07:54:02;101555.06;;;26.63;46.65
39773;BME280;25451;51.960;6.250;2023-07-08T07:56:28;101541.22;;;26.79;46.52
39773;BME280;25451;51.960;6.250;2023-07-08T07:58:53;101544.66;;;27.01;46.36
39773;BME280;25451;51.960;6.250;2023-07-08T08:01:18;101551.59;;;27.21;46.30
39773;BME280;25451;51.960;6.250;2023-07-08T08:03:45;101541.38;;;27.37;46.09
39773;BME280;25451;51.960;6.250;2023-07-08T08:06:10;101543.66;;;27.52;45.90
39773;BME280;25451;51.960;6.250;2023-07-08T08:08:35;101539.91;;;27.69;45.54
39773;BME280;25451;51.960;6.250;2023-07-08T08:11:01;101545.13;;;27.87;45.42
39773;BME280;25451;51.960;6.250;2023-07-08T08:13:26;101525.56;;;27.95;44.93
39773;BME280;25451;51.960;6.250;2023-07-08T08:15:59;101534.94;;;28.16;44.79
39773;BME280;25451;51.960;6.250;2023-07-08T08:18:24;101527.03;;;28.21;44.58
39773;BME280;25451;51.960;6.250;2023-07-08T08:20:50;101536.59;;;28.37;44.27
39773;BME280;25451;51.960;6.250;2023-07-08T08:23:16;101543.38;;;28.45;44.24
39773;BME280;25451;51.960;6.250;2023-07-08T08:25:41;101539.28;;;28.54;44.26
39773;BME280;25451;51.960;6.250;2023-07-08T08:28:07;101540.19;;;28.67;43.88
39773;BME280;25451;51.960;6.250;2023-07-08T08:30:32;101530.97;;;28.70;43.34
39773;BME280;25451;51.960;6.250;2023-07-08T08:32:58;101544.75;;;28.80;43.17
39773;BME280;25451;51.960;6.250;2023-07-08T08:35:23;101536.97;;;28.89;43.54
39773;BME280;25451;51.960;6.250;2023-07-08T08:37:49;101548.84;;;29.03;43.53
39773;BME280;25451;51.960;6.250;2023-07-08T08:40:16;101555.06;;;29.17;43.33
39773;BME280;25451;51.960;6.250;2023-07-08T08:45:19;101535.09;;;29.38;43.15
39773;BME280;25451;51.960;6.250;2023-07-08T08:47:53;101548.22;;;29.55;42.70
39773;BME280;25451;51.960;6.250;2023-07-08T08:53:17;101553.97;;;29.79;42.41
39773;BME280;25451;51.960;6.250;2023-07-08T08:55:43;101553.97;;;29.91;42.72
39773;BME280;25451;51.960;6.250;2023-07-08T08:58:54;101563.91;;;30.09;42.31
39773;BME280;25451;51.960;6.250;2023-07-08T09:01:02;101557.72;;;30.19;42.06
39773;BME280;25451;51.960;6.250;2023-07-08T09:03:43;101563.88;;;30.33;41.99
39773;BME280;25451;51.960;6.250;2023-07-08T09:06:28;101565.97;;;30.48;42.34
39773;BME280;25451;51.960;6.250;2023-07-08T09:08:56;101562.25;;;30.60;42.10
39773;BME280;25451;51.960;6.250;2023-07-08T09:14:03;101563.69;;;30.81;41.31
39773;BME280;25451;51.960;6.250;2023-07-08T09:16:50;101570.75;;;30.99;41.25
39773;BME280;25451;51.960;6.250;2023-07-08T09:19:24;101558.94;;;31.13;41.10
39773;BME280;25451;51.960;6.250;2023-07-08T09:22:04;101553.94;;;31.26;40.78
39773;BME280;25451;51.960;6.250;2023-07-08T09:24:43;101551.03;;;31.38;40.80
39773;BME280;25451;51.960;6.250;2023-07-08T09:27:09;101536.66;;;31.34;40.76
39773;BME280;25451;51.960;6.250;2023-07-08T09:29:35;101561.84;;;31.60;41.06
39773;BME280;25451;51.960;6.250;2023-07-08T09:32:21;101546.81;;;31.63;40.46
39773;BME280;25451;51.960;6.250;2023-07-08T09:34:53;101553.69;;;31.77;40.60
39773;BME280;25451;51.960;6.250;2023-07-08T09:37:28;101541.63;;;31.84;40.08
39773;BME280;25451;51.960;6.250;2023-07-08T09:39:55;101544.09;;;32.01;39.94
39773;BME280;25451;51.960;6.250;2023-07-08T09:42:22;101553.00;;;32.15;39.68
39773;BME280;25451;51.960;6.250;2023-07-08T09:44:55;101534.66;;;32.16;39.80
39773;BME280;25451;51.960;6.250;2023-07-08T09:47:35;101546.19;;;32.39;39.60
39773;BME280;25451;51.960;6.250;2023-07-08T09:50:20;101546.00;;;32.47;39.56
39773;BME280;25451;51.960;6.250;2023-07-08T09:52:51;101545.94;;;32.63;39.40
39773;BME280;25451;51.960;6.250;2023-07-08T09:55:17;101549.84;;;32.74;39.46
39773;BME280;25451;51.960;6.250;2023-07-08T09:57:44;101544.25;;;32.81;39.18
39773;BME280;25451;51.960;6.250;2023-07-08T10:00:15;101557.56;;;32.93;38.96
39773;BME280;25451;51.960;6.250;2023-07-08T10:05:17;101555.75;;;32.85;38.39
39773;BME280;25451;51.960;6.250;2023-07-08T10:07:44;101542.41;;;32.70;38.00
39773;BME280;25451;51.960;6.250;2023-07-08T10:10:15;101541.56;;;32.69;38.12
39773;BME280;25451;51.960;6.250;2023-07-08T10:12:42;101550.81;;;32.82;37.99
39773;BME280;25451;51.960;6.250;2023-07-08T10:15:21;101541.91;;;32.87;38.08
39773;BME280;25451;51.960;6.250;2023-07-08T10:17:48;101556.22;;;33.06;37.98
39773;BME280;25451;51.960;6.250;2023-07-08T10:20:13;101548.47;;;33.06;37.95
39773;BME280;25451;51.960;6.250;2023-07-08T10:22:57;101554.53;;;33.24;37.82
39773;BME280;25451;51.960;6.250;2023-07-08T10:25:38;101550.13;;;33.30;37.66
39773;BME280;25451;51.960;6.250;2023-07-08T10:28:49;101555.34;;;33.47;37.62
39773;BME280;25451;51.960;6.250;2023-07-08T10:31:35;101557.38;;;33.46;37.78
39773;BME280;25451;51.960;6.250;2023-07-08T10:36:58;101564.72;;;33.67;37.16
39773;BME280;25451;51.960;6.250;2023-07-08T10:42:56;101570.72;;;33.84;37.40
39773;BME280;25451;51.960;6.250;2023-07-08T10:50:46;101564.94;;;33.81;36.72
39773;BME280;25451;51.960;6.250;2023-07-08T10:55:57;101541.75;;;33.63;36.59
39773;BME280;25451;51.960;6.250;2023-07-08T11:06:40;101547.44;;;33.60;36.92
39773;BME280;25451;51.960;6.250;2023-07-08T11:09:07;101552.88;;;33.68;37.20
39773;BME280;25451;51.960;6.250;2023-07-08T11:14:14;101544.59;;;33.86;36.80
39773;BME280;25451;51.960;6.250;2023-07-08T11:16:53;101534.00;;;33.90;36.93
39773;BME280;25451;51.960;6.250;2023-07-08T11:19:43;101534.22;;;34.00;36.02
39773;BME280;25451;51.960;6.250;2023-07-08T11:22:13;101525.22;;;34.02;36.51
39773;BME280;25451;51.960;6.250;2023-07-08T11:24:44;101517.91;;;34.04;36.50
39773;BME280;25451;51.960;6.250;2023-07-08T11:27:19;101524.19;;;34.17;36.12
39773;BME280;25451;51.960;6.250;2023-07-08T11:29:53;101520.88;;;34.15;35.86
39773;BME280;25451;51.960;6.250;2023-07-08T11:32:21;101525.38;;;34.12;35.77
39773;BME280;25451;51.960;6.250;2023-07-08T11:34:51;101501.03;;;33.99;35.46
39773;BME280;25451;51.960;6.250;2023-07-08T11:37:19;101521.44;;;34.24;35.61
39773;BME280;25451;51.960;6.250;2023-07-08T11:39:52;101537.19;;;34.37;35.45
39773;BME280;25451;51.960;6.250;2023-07-08T11:42:23;101529.50;;;34.45;35.18
39773;BME280;25451;51.960;6.250;2023-07-08T11:44:58;101532.81;;;34.47;35.03
39773;BME280;25451;51.960;6.250;2023-07-08T11:47:37;101535.78;;;34.54;35.12
39773;BME280;25451;51.960;6.250;2023-07-08T11:50:12;101516.91;;;34.49;35.08
39773;BME280;25451;51.960;6.250;2023-07-08T11:52:50;101522.28;;;34.54;34.63
39773;BME280;25451;51.960;6.250;2023-07-08T11:55:24;101522.94;;;34.44;34.69
39773;BME280;25451;51.960;6.250;2023-07-08T11:57:54;101517.63;;;34.46;34.95
39773;BME280;25451;51.960;6.250;2023-07-08T12:00:25;101523.56;;;34.60;34.90
39773;BME280;25451;51.960;6.250;2023-07-08T12:02:53;101526.91;;;34.66;34.56
39773;BME280;25451;51.960;6.250;2023-07-08T12:05:30;101517.97;;;34.71;34.32
39773;BME280;25451;51.960;6.250;2023-07-08T12:07:57;101522.22;;;34.84;34.17
39773;BME280;25451;51.960;6.250;2023-07-08T12:10:51;101524.41;;;34.94;34.23
39773;BME280;25451;51.960;6.250;2023-07-08T12:13:20;101519.09;;;34.96;34.35
39773;BME280;25451;51.960;6.250;2023-07-08T12:15:46;101529.38;;;35.00;34.23
39773;BME280;25451;51.960;6.250;2023-07-08T12:18:19;101519.56;;;34.98;34.23
39773;BME280;25451;51.960;6.250;2023-07-08T12:20:52;101523.66;;;35.00;34.17
39773;BME280;25451;51.960;6.250;2023-07-08T12:23:21;101526.53;;;35.00;34.19
39773;BME280;25451;51.960;6.250;2023-07-08T12:25:47;101531.50;;;35.03;33.81
39773;BME280;25451;51.960;6.250;2023-07-08T12:28:14;101511.25;;;34.93;33.76
39773;BME280;25451;51.960;6.250;2023-07-08T12:30:41;101500.91;;;34.85;33.82
39773;BME280;25451;51.960;6.250;2023-07-08T12:33:13;101509.97;;;34.87;33.68
39773;BME280;25451;51.960;6.250;2023-07-08T12:35:41;101500.06;;;34.81;33.92
39773;BME280;25451;51.960;6.250;2023-07-08T12:38:27;101518.16;;;34.88;33.78
39773;BME280;25451;51.960;6.250;2023-07-08T12:40:55;101512.38;;;34.85;33.66
39773;BME280;25451;51.960;6.250;2023-07-08T12:43:22;101496.22;;;34.70;33.86
39773;BME280;25451;51.960;6.250;2023-07-08T12:45:47;101497.47;;;34.69;34.00
39773;BME280;25451;51.960;6.250;2023-07-08T12:48:12;101511.00;;;34.72;33.87
39773;BME280;25451;51.960;6.250;2023-07-08T12:50:38;101516.28;;;34.66;33.78
39773;BME280;25451;51.960;6.250;2023-07-08T12:53:05;101508.84;;;34.62;34.18
39773;BME280;25451;51.960;6.250;2023-07-08T12:55:35;101497.69;;;34.53;33.90
39773;BME280;25451;51.960;6.250;2023-07-08T12:58:01;101486.16;;;34.50;34.32
39773;BME280;25451;51.960;6.250;2023-07-08T13:00:32;101490.13;;;34.42;34.20
39773;BME280;25451;51.960;6.250;2023-07-08T13:03:19;101494.28;;;34.48;34.26
39773;BME280;25451;51.960;6.250;2023-07-08T13:05:48;101474.13;;;34.37;34.18
39773;BME280;25451;51.960;6.250;2023-07-08T13:08:15;101469.19;;;34.38;34.70
39773;BME280;25451;51.960;6.250;2023-07-08T13:10:41;101477.72;;;34.31;34.35
39773;BME280;25451;51.960;6.250;2023-07-08T13:13:12;101484.69;;;34.33;34.29
39773;BME280;25451;51.960;6.250;2023-07-08T13:15:40;101470.59;;;34.21;34.13
39773;BME280;25451;51.960;6.250;2023-07-08T13:18:18;101484.56;;;34.22;34.46
39773;BME280;25451;51.960;6.250;2023-07-08T13:20:48;101494.81;;;34.23;34.20
39773;BME280;25451;51.960;6.250;2023-07-08T13:23:15;101479.44;;;34.09;34.23
39773;BME280;25451;51.960;6.250;2023-07-08T13:25:40;101497.16;;;34.14;34.26
39773;BME280;25451;51.960;6.250;2023-07-08T13:28:22;101485.13;;;34.05;34.19
39773;BME280;25451;51.960;6.250;2023-07-08T13:31:01;101474.41;;;33.99;34.44
39773;BME280;25451;51.960;6.250;2023-07-08T13:33:31;101488.34;;;34.00;34.28
39773;BME280;25451;51.960;6.250;2023-07-08T13:35:57;101470.03;;;33.82;34.30
39773;BME280;25451;51.960;6.250;2023-07-08T13:38:31;101486.47;;;33.85;34.20